createdAt,value
2023-01-28T00:00:41.431Z,999.29
2023-01-28T00:01:43.171Z,999.27
2023-01-28T00:02:45.148Z,999.26
2023-01-28T00:03:50.778Z,999.21
2023-01-28T00:04:53.549Z,999.26
2023-01-28T00:05:55.283Z,999.28
2023-01-28T00:06:57.017Z,999.26
2023-01-28T00:07:58.793Z,999.21
2023-01-28T00:09:00.473Z,999.24
2023-01-28T00:10:06.676Z,999.25
2023-01-28T00:11:09.079Z,999.3
2023-01-28T00:12:10.778Z,999.33
2023-01-28T00:13:12.588Z,999.35
2023-01-28T00:14:14.305Z,999.29
2023-01-28T00:15:16.265Z,999.29
2023-01-28T00:16:17.803Z,999.31
2023-01-28T00:17:19.514Z,999.25
2023-01-28T00:18:21.237Z,999.24
2023-01-28T00:19:22.967Z,999.25
2023-01-28T00:20:24.722Z,999.27
2023-01-28T00:21:26.453Z,999.27
2023-01-28T00:22:28.199Z,999.29
2023-01-28T00:23:29.892Z,999.3
2023-01-28T00:24:31.728Z,999.28
2023-01-28T00:25:33.380Z,999.25
2023-01-28T00:26:35.134Z,999.27
2023-01-28T00:27:36.855Z,999.31
2023-01-28T00:28:38.574Z,999.29
2023-01-28T00:29:40.341Z,999.32
2023-01-28T00:30:42.105Z,999.29
2023-01-28T00:31:43.886Z,999.3
2023-01-28T00:32:45.501Z,999.32
2023-01-28T00:33:47.310Z,999.32
2023-01-28T00:34:49.002Z,999.34
2023-01-28T00:35:50.723Z,999.38
2023-01-28T00:36:52.460Z,999.3
2023-01-28T00:37:54.169Z,999.32
2023-01-28T00:38:55.941Z,999.31
2023-01-28T00:39:57.634Z,999.35
2023-01-28T00:40:59.376Z,999.3
2023-01-28T00:42:01.379Z,999.29
2023-01-28T00:43:02.874Z,999.31
2023-01-28T00:44:07.246Z,999.3
2023-01-28T00:45:11.629Z,999.28
2023-01-28T00:46:13.249Z,999.33
2023-01-28T00:47:14.922Z,999.31
2023-01-28T00:48:16.595Z,999.3
2023-01-28T00:49:18.326Z,999.34
2023-01-28T00:50:20.057Z,999.28
2023-01-28T00:51:21.795Z,999.31
2023-01-28T00:52:23.568Z,999.34
2023-01-28T00:53:25.271Z,999.36
2023-01-28T00:54:27.008Z,999.36
2023-01-28T00:55:28.740Z,999.33
2023-01-28T00:56:30.517Z,999.38
2023-01-28T00:57:32.191Z,999.34
2023-01-28T00:58:33.937Z,999.4
2023-01-28T00:59:35.659Z,999.33
2023-01-28T01:00:37.465Z,999.31
2023-01-28T01:01:39.201Z,999.35
2023-01-28T01:02:42.064Z,999.37
2023-01-28T01:03:42.604Z,999.34
2023-01-28T01:04:44.523Z,999.37
2023-01-28T01:05:46.061Z,999.35
2023-01-28T01:06:47.814Z,999.38
2023-01-28T01:07:49.540Z,999.37
2023-01-28T01:08:51.317Z,999.23
2023-01-28T01:09:52.997Z,999.36
2023-01-28T01:10:54.741Z,999.34
2023-01-28T01:11:56.468Z,999.35
2023-01-28T01:12:58.197Z,999.32
2023-01-28T01:13:59.980Z,999.4
2023-01-28T01:15:03.018Z,999.36
2023-01-28T01:16:09.387Z,999.35
2023-01-28T01:17:10.402Z,999.33
2023-01-28T01:18:14.770Z,999.35
2023-01-28T01:19:21.209Z,999.34
2023-01-28T01:20:30.279Z,999.27
2023-01-28T01:21:34.618Z,999.33
2023-01-28T01:22:39.619Z,999.36
2023-01-28T01:23:41.324Z,999.37
2023-01-28T01:24:44.514Z,999.29
2023-01-28T01:25:44.756Z,999.36
2023-01-28T01:26:46.527Z,999.37
2023-01-28T01:27:48.264Z,999.36
2023-01-28T01:28:49.997Z,999.39
2023-01-28T01:29:51.690Z,999.43
2023-01-28T01:30:53.442Z,999.4
2023-01-28T01:31:55.214Z,999.4
2023-01-28T01:32:56.925Z,999.41
2023-01-28T01:33:58.816Z,999.45
2023-01-28T01:35:00.388Z,999.42
2023-01-28T01:36:02.096Z,999.5
2023-01-28T01:37:03.850Z,999.44
2023-01-28T01:38:05.586Z,999.48
2023-01-28T01:39:07.311Z,999.52
2023-01-28T01:40:09.045Z,999.45
2023-01-28T01:41:10.758Z,999.49
2023-01-28T01:42:12.488Z,999.55
2023-01-28T01:43:14.219Z,999.57
2023-01-28T01:44:15.986Z,999.57
2023-01-28T01:45:18.001Z,999.66
2023-01-28T01:46:19.453Z,999.57
2023-01-28T01:47:21.167Z,999.58
2023-01-28T01:48:22.969Z,999.64
2023-01-28T01:49:24.665Z,999.63
2023-01-28T01:50:26.359Z,999.59
2023-01-28T01:51:28.105Z,999.65
2023-01-28T01:52:29.856Z,999.64
2023-01-28T01:53:31.607Z,999.66
2023-01-28T01:54:33.283Z,999.63
2023-01-28T01:55:36.651Z,999.49
2023-01-28T01:56:36.777Z,999.64
2023-01-28T01:57:38.489Z,999.66
2023-01-28T01:58:40.223Z,999.64
2023-01-28T01:59:41.956Z,999.65
2023-01-28T02:00:43.690Z,999.64
2023-01-28T02:01:45.475Z,999.62
2023-01-28T02:02:47.184Z,999.65
2023-01-28T02:03:48.965Z,999.66
2023-01-28T02:04:50.617Z,999.68
2023-01-28T02:05:52.588Z,999.66
2023-01-28T02:06:54.153Z,999.7
2023-01-28T02:07:55.861Z,999.66
2023-01-28T02:08:57.589Z,999.69
2023-01-28T02:09:59.286Z,999.63
2023-01-28T02:11:01.012Z,999.63
2023-01-28T02:12:02.861Z,999.62
2023-01-28T02:13:04.493Z,999.67
2023-01-28T02:14:06.245Z,999.64
2023-01-28T02:15:07.972Z,999.59
2023-01-28T02:16:09.716Z,999.61
2023-01-28T02:17:11.461Z,999.65
2023-01-28T02:18:13.143Z,999.65
2023-01-28T02:19:14.885Z,999.67
2023-01-28T02:20:16.747Z,999.67
2023-01-28T02:21:18.354Z,999.62
2023-01-28T02:22:20.083Z,999.61
2023-01-28T02:23:21.829Z,999.67
2023-01-28T02:24:23.734Z,999.71
2023-01-28T02:25:25.287Z,999.69
2023-01-28T02:26:27.087Z,999.72
2023-01-28T02:27:28.768Z,999.69
2023-01-28T02:28:30.479Z,999.73
2023-01-28T02:29:32.233Z,999.72
2023-01-28T02:30:34.181Z,999.71
2023-01-28T02:31:35.824Z,999.71
2023-01-28T02:32:37.243Z,999.75
2023-01-28T02:33:39.015Z,999.77
2023-01-28T02:34:40.711Z,999.74
2023-01-28T02:35:42.444Z,999.73
2023-01-28T02:36:44.341Z,999.72
2023-01-28T02:37:45.904Z,999.67
2023-01-28T02:38:47.652Z,999.71
2023-01-28T02:39:49.388Z,999.74
2023-01-28T02:40:51.118Z,999.75
2023-01-28T02:41:52.850Z,999.75
2023-01-28T02:42:54.572Z,999.71
2023-01-28T02:43:56.348Z,999.74
2023-01-28T02:44:58.077Z,999.73
2023-01-28T02:45:59.876Z,999.73
2023-01-28T02:47:01.527Z,999.74
2023-01-28T02:48:03.295Z,999.74
2023-01-28T02:49:04.998Z,999.72
2023-01-28T02:50:06.709Z,999.72
2023-01-28T02:51:08.443Z,999.75
2023-01-28T02:52:10.247Z,999.77
2023-01-28T02:53:11.916Z,999.74
2023-01-28T02:54:13.656Z,999.75
2023-01-28T02:55:15.811Z,999.72
2023-01-28T02:56:17.129Z,999.76
2023-01-28T02:57:18.886Z,999.8
2023-01-28T02:58:20.581Z,999.81
2023-01-28T02:59:22.420Z,999.84
2023-01-28T03:00:24.073Z,999.78
2023-01-28T03:01:25.972Z,999.81
2023-01-28T03:02:27.635Z,999.85
2023-01-28T03:03:29.288Z,999.91
2023-01-28T03:04:31.065Z,999.88
2023-01-28T03:05:32.741Z,999.88
2023-01-28T03:06:34.512Z,999.94
2023-01-28T03:07:36.211Z,999.88
2023-01-28T03:08:37.950Z,999.91
2023-01-28T03:09:39.676Z,999.92
2023-01-28T03:10:41.455Z,999.9
2023-01-28T03:11:43.168Z,999.89
2023-01-28T03:12:45.068Z,999.91
2023-01-28T03:13:46.655Z,999.9
2023-01-28T03:14:48.332Z,999.91
2023-01-28T03:15:50.123Z,999.95
2023-01-28T03:16:51.822Z,999.96
2023-01-28T03:17:53.540Z,999.95
2023-01-28T03:18:55.302Z,999.99
2023-01-28T03:19:56.997Z,999.97
2023-01-28T03:20:58.811Z,999.96
2023-01-28T03:22:00.514Z,999.99
2023-01-28T03:23:02.218Z,1000
2023-01-28T03:24:04.110Z,999.99
2023-01-28T03:25:05.732Z,999.98
2023-01-28T03:26:07.424Z,999.94
2023-01-28T03:27:09.163Z,1000.04
2023-01-28T03:28:10.904Z,999.95
2023-01-28T03:29:12.617Z,1000.03
2023-01-28T03:30:14.539Z,1000
2023-01-28T03:31:16.124Z,1000.06
2023-01-28T03:32:17.901Z,1000.03
2023-01-28T03:33:19.568Z,1000.05
2023-01-28T03:34:21.507Z,1000.02
2023-01-28T03:35:23.107Z,1000.05
2023-01-28T03:36:25.174Z,1000.08
2023-01-28T03:37:26.490Z,1000.08
2023-01-28T03:38:28.248Z,1000.02
2023-01-28T03:39:29.970Z,1000.12
2023-01-28T03:40:31.817Z,1000.14
2023-01-28T03:41:33.476Z,1000.12
2023-01-28T03:42:35.186Z,1000.12
2023-01-28T03:43:36.898Z,1000.08
2023-01-28T03:44:38.671Z,1000.07
2023-01-28T03:45:40.401Z,1000.08
2023-01-28T03:46:42.183Z,1000.16
2023-01-28T03:47:44.004Z,1000.12
2023-01-28T03:48:45.709Z,1000.13
2023-01-28T03:49:47.361Z,1000.13
2023-01-28T03:50:49.089Z,1000.16
2023-01-28T03:51:50.793Z,1000.16
2023-01-28T03:52:52.507Z,1000.18
2023-01-28T03:53:54.232Z,1000.2
2023-01-28T03:54:55.960Z,1000.21
2023-01-28T03:55:57.746Z,1000.18
2023-01-28T03:56:59.465Z,1000.28
2023-01-28T03:58:01.195Z,1000.28
2023-01-28T03:59:02.972Z,1000.26
2023-01-28T04:00:04.661Z,1000.22
2023-01-28T04:01:06.405Z,1000.25
2023-01-28T04:02:08.143Z,1000.25
2023-01-28T04:03:09.919Z,1000.27
2023-01-28T04:04:11.569Z,1000.28
2023-01-28T04:05:13.565Z,1000.28
2023-01-28T04:06:15.044Z,1000.34
2023-01-28T04:07:16.805Z,1000.27
2023-01-28T04:08:18.525Z,1000.3
2023-01-28T04:09:20.288Z,1000.28
2023-01-28T04:10:21.962Z,1000.25
2023-01-28T04:11:23.819Z,1000.21
2023-01-28T04:12:25.464Z,1000.24
2023-01-28T04:13:27.180Z,1000.23
2023-01-28T04:14:28.946Z,1000.19
2023-01-28T04:15:30.646Z,1000.24
2023-01-28T04:16:32.373Z,1000.16
2023-01-28T04:17:34.231Z,1000.2
2023-01-28T04:18:35.881Z,1000.17
2023-01-28T04:19:37.642Z,1000.28
2023-01-28T04:20:39.297Z,1000.27
2023-01-28T04:21:41.054Z,1000.17
2023-01-28T04:22:42.929Z,1000.19
2023-01-28T04:23:44.592Z,1000.23
2023-01-28T04:24:46.411Z,1000.25
2023-01-28T04:25:47.990Z,1000.26
2023-01-28T04:26:49.747Z,1000.23
2023-01-28T04:27:51.449Z,1000.26
2023-01-28T04:28:53.184Z,1000.24
2023-01-28T04:29:54.917Z,1000.26
2023-01-28T04:30:56.726Z,1000.28
2023-01-28T04:31:58.374Z,1000.28
2023-01-28T04:33:00.147Z,1000.31
2023-01-28T04:34:01.869Z,1000.23
2023-01-28T04:35:03.798Z,1000.23
2023-01-28T04:36:05.356Z,1000.28
2023-01-28T04:37:07.037Z,1000.25
2023-01-28T04:38:08.819Z,1000.25
2023-01-28T04:39:10.491Z,1000.24
2023-01-28T04:40:12.230Z,1000.22
2023-01-28T04:41:14.007Z,1000.26
2023-01-28T04:42:15.706Z,1000.22
2023-01-28T04:43:17.451Z,1000.21
2023-01-28T04:44:19.171Z,1000.27
2023-01-28T04:45:20.928Z,1000.26
2023-01-28T04:46:22.740Z,1000.23
2023-01-28T04:47:24.435Z,1000.27
2023-01-28T04:48:26.146Z,1000.25
2023-01-28T04:49:27.850Z,1000.26
2023-01-28T04:50:29.598Z,1000.28
2023-01-28T04:51:31.320Z,1000.25
2023-01-28T04:52:33.039Z,1000.29
2023-01-28T04:53:34.777Z,1000.25
2023-01-28T04:54:36.528Z,1000.28
2023-01-28T04:55:38.237Z,1000.31
2023-01-28T04:56:40.022Z,1000.23
2023-01-28T04:57:41.748Z,1000.34
2023-01-28T04:58:43.456Z,1000.34
2023-01-28T04:59:49.689Z,1000.32
2023-01-28T05:00:52.085Z,1000.24
2023-01-28T05:01:53.844Z,1000.26
2023-01-28T05:02:55.507Z,1000.25
2023-01-28T05:03:57.228Z,1000.26
2023-01-28T05:04:58.958Z,1000.24
2023-01-28T05:06:00.698Z,1000.29
2023-01-28T05:07:02.509Z,1000.28
2023-01-28T05:08:04.426Z,1000.31
2023-01-28T05:09:05.883Z,1000.35
2023-01-28T05:10:07.699Z,1000.31
2023-01-28T05:11:09.356Z,1000.33
2023-01-28T05:12:11.112Z,1000.35
2023-01-28T05:13:12.859Z,1000.32
2023-01-28T05:14:14.584Z,1000.35
2023-01-28T05:15:16.745Z,1000.34
2023-01-28T05:16:18.041Z,1000.38
2023-01-28T05:17:19.934Z,1000.34
2023-01-28T05:18:21.510Z,1000.24
2023-01-28T05:19:23.360Z,1000.3
2023-01-28T05:20:25.032Z,1000.33
2023-01-28T05:21:26.717Z,1000.3
2023-01-28T05:22:28.445Z,1000.33
2023-01-28T05:23:30.181Z,1000.31
2023-01-28T05:24:32.007Z,1000.36
2023-01-28T05:25:33.648Z,1000.38
2023-01-28T05:26:35.358Z,1000.32
2023-01-28T05:27:37.138Z,1000.35
2023-01-28T05:28:38.831Z,1000.31
2023-01-28T05:29:40.604Z,1000.33
2023-01-28T05:30:42.341Z,1000.31
2023-01-28T05:31:44.108Z,1000.35
2023-01-28T05:32:45.861Z,1000.35
2023-01-28T05:33:47.519Z,1000.35
2023-01-28T05:34:49.253Z,1000.36
2023-01-28T05:35:50.982Z,1000.3
2023-01-28T05:36:52.695Z,1000.36
2023-01-28T05:37:54.461Z,1000.36
2023-01-28T05:38:56.171Z,1000.39
2023-01-28T05:39:57.971Z,1000.34
2023-01-28T05:40:59.651Z,1000.38
2023-01-28T05:42:01.411Z,1000.33
2023-01-28T05:43:03.326Z,1000.39
2023-01-28T05:44:05.034Z,1000.42
2023-01-28T05:45:06.592Z,1000.39
2023-01-28T05:46:08.306Z,1000.44
2023-01-28T05:47:10.037Z,1000.42
2023-01-28T05:48:11.779Z,1000.43
2023-01-28T05:49:13.529Z,1000.43
2023-01-28T05:50:15.805Z,1000.42
2023-01-28T05:51:16.975Z,1000.51
2023-01-28T05:52:18.728Z,1000.49
2023-01-28T05:53:20.461Z,1000.46
2023-01-28T05:54:22.178Z,1000.51
2023-01-28T05:55:23.953Z,1000.5
2023-01-28T05:56:25.658Z,1000.53
2023-01-28T05:57:27.370Z,1000.58
2023-01-28T05:58:29.160Z,1000.6
2023-01-28T05:59:30.869Z,1000.56
2023-01-28T06:00:32.618Z,1000.58
2023-01-28T06:01:34.360Z,1000.58
2023-01-28T06:02:36.233Z,1000.58
2023-01-28T06:03:37.814Z,1000.57
2023-01-28T06:04:39.533Z,1000.56
2023-01-28T06:05:41.290Z,1000.54
2023-01-28T06:06:43.021Z,1000.62
2023-01-28T06:07:44.890Z,1000.59
2023-01-28T06:08:46.489Z,1000.63
2023-01-28T06:09:48.243Z,1000.62
2023-01-28T06:10:49.972Z,1000.6
2023-01-28T06:11:51.668Z,1000.6
2023-01-28T06:12:53.423Z,1000.6
2023-01-28T06:13:55.143Z,1000.63
2023-01-28T06:14:56.881Z,1000.62
2023-01-28T06:15:58.690Z,1000.65
2023-01-28T06:17:00.341Z,1000.65
2023-01-28T06:18:02.368Z,1000.69
2023-01-28T06:19:03.943Z,1000.64
2023-01-28T06:20:05.534Z,1000.74
2023-01-28T06:21:07.286Z,1000.69
2023-01-28T06:22:09.013Z,1000.79
2023-01-28T06:23:10.782Z,1000.78
2023-01-28T06:24:12.528Z,1000.81
2023-01-28T06:25:14.210Z,1000.74
2023-01-28T06:26:15.941Z,1000.82
2023-01-28T06:27:17.678Z,1000.78
2023-01-28T06:28:19.414Z,1000.86
2023-01-28T06:29:21.148Z,1000.91
2023-01-28T06:30:22.937Z,1000.89
2023-01-28T06:31:24.831Z,1000.88
2023-01-28T06:32:26.469Z,1000.94
2023-01-28T06:33:28.121Z,1000.88
2023-01-28T06:34:29.823Z,1000.92
2023-01-28T06:35:31.587Z,1000.92
2023-01-28T06:36:33.294Z,1000.93
2023-01-28T06:37:35.024Z,1000.97
2023-01-28T06:38:36.766Z,1001.02
2023-01-28T06:39:38.482Z,1001.06
2023-01-28T06:40:40.205Z,1000.97
2023-01-28T06:41:41.944Z,1001.06
2023-01-28T06:42:43.872Z,1001.03
2023-01-28T06:43:45.413Z,1001.07
2023-01-28T06:44:47.368Z,1001.05
2023-01-28T06:45:49.047Z,1001.06
2023-01-28T06:46:50.662Z,1001.08
2023-01-28T06:47:52.457Z,1001.07
2023-01-28T06:48:54.080Z,1001.14
2023-01-28T06:49:55.807Z,1001.1
2023-01-28T06:50:57.751Z,1001.13
2023-01-28T06:51:59.278Z,1001.12
2023-01-28T06:53:01.019Z,1001.02
2023-01-28T06:54:02.836Z,1001.09
2023-01-28T06:55:04.528Z,1001.08
2023-01-28T06:56:06.234Z,1001.1
2023-01-28T06:57:07.966Z,1001.09
2023-01-28T06:58:09.678Z,1001.14
2023-01-28T06:59:11.398Z,1001.16
2023-01-28T07:00:13.810Z,1001.14
2023-01-28T07:01:14.853Z,1001.17
2023-01-28T07:02:16.563Z,1001.16
2023-01-28T07:03:18.340Z,1001.15
2023-01-28T07:04:20.058Z,1001.15
2023-01-28T07:05:21.819Z,1001.16
2023-01-28T07:06:23.637Z,1001.13
2023-01-28T07:07:25.466Z,1001.12
2023-01-28T07:08:27.012Z,1001.16
2023-01-28T07:09:28.723Z,1001.18
2023-01-28T07:10:30.508Z,1001.2
2023-01-28T07:11:32.213Z,1001.2
2023-01-28T07:12:33.906Z,1001.24
2023-01-28T07:13:35.671Z,1001.15
2023-01-28T07:14:37.381Z,1001.2
2023-01-28T07:15:39.126Z,1001.23
2023-01-28T07:16:40.854Z,1001.31
2023-01-28T07:17:42.573Z,1001.25
2023-01-28T07:18:44.585Z,1001.22
2023-01-28T07:19:46.082Z,1001.23
2023-01-28T07:20:47.824Z,1001.22
2023-01-28T07:21:49.529Z,1001.18
2023-01-28T07:22:51.245Z,1001.28
2023-01-28T07:23:53.026Z,1001.33
2023-01-28T07:24:54.716Z,1001.29
2023-01-28T07:25:56.441Z,1001.34
2023-01-28T07:26:58.197Z,1001.32
2023-01-28T07:27:59.928Z,1001.35
2023-01-28T07:29:01.727Z,1001.35
2023-01-28T07:30:03.431Z,1001.28
2023-01-28T07:31:05.292Z,1001.32
2023-01-28T07:32:06.907Z,1001.28
2023-01-28T07:33:08.595Z,1001.32
2023-01-28T07:34:10.318Z,1001.29
2023-01-28T07:35:12.055Z,1001.28
2023-01-28T07:36:13.784Z,1001.34
2023-01-28T07:37:15.509Z,1001.33
2023-01-28T07:38:17.260Z,1001.28
2023-01-28T07:39:19.026Z,1001.36
2023-01-28T07:40:20.726Z,1001.34
2023-01-28T07:41:22.606Z,1001.33
2023-01-28T07:42:24.174Z,1001.34
2023-01-28T07:43:25.913Z,1001.37
2023-01-28T07:44:27.663Z,1001.36
2023-01-28T07:45:29.390Z,1001.35
2023-01-28T07:46:31.151Z,1001.37
2023-01-28T07:47:32.998Z,1001.42
2023-01-28T07:48:34.589Z,1001.36
2023-01-28T07:49:36.300Z,1001.41
2023-01-28T07:50:38.112Z,1001.36
2023-01-28T07:51:39.808Z,1001.38
2023-01-28T07:52:41.518Z,1001.41
2023-01-28T07:53:43.374Z,1001.37
2023-01-28T07:54:45.011Z,1001.44
2023-01-28T07:55:46.761Z,1001.41
2023-01-28T07:56:48.450Z,1001.43
2023-01-28T07:57:50.215Z,1001.45
2023-01-28T07:58:51.930Z,1001.44
2023-01-28T07:59:53.678Z,1001.44
2023-01-28T08:00:55.425Z,1001.49
2023-01-28T08:01:57.142Z,1001.5
2023-01-28T08:02:58.910Z,1001.49
2023-01-28T08:04:00.669Z,1001.49
2023-01-28T08:05:02.533Z,1001.49
2023-01-28T08:06:04.062Z,1001.49
2023-01-28T08:07:07.928Z,1001.5
2023-01-28T08:08:07.539Z,1001.51
2023-01-28T08:09:09.276Z,1001.52
2023-01-28T08:10:10.980Z,1001.48
2023-01-28T08:11:12.729Z,1001.52
2023-01-28T08:12:14.469Z,1001.45
2023-01-28T08:13:16.194Z,1001.56
2023-01-28T08:14:17.961Z,1001.5
2023-01-28T08:15:19.667Z,1001.52
2023-01-28T08:16:21.487Z,1001.53
2023-01-28T08:17:23.116Z,1001.57
2023-01-28T08:18:24.885Z,1001.55
2023-01-28T08:19:26.590Z,1001.54
2023-01-28T08:20:28.332Z,1001.57
2023-01-28T08:21:30.055Z,1001.58
2023-01-28T08:22:31.782Z,1001.58
2023-01-28T08:23:33.504Z,1001.59
2023-01-28T08:24:35.272Z,1001.64
2023-01-28T08:25:37.003Z,1001.59
2023-01-28T08:26:38.725Z,1001.56
2023-01-28T08:27:40.479Z,1001.59
2023-01-28T08:28:42.192Z,1001.58
2023-01-28T08:29:43.956Z,1001.64
2023-01-28T08:30:45.775Z,1001.67
2023-01-28T08:31:47.554Z,1001.67
2023-01-28T08:32:49.131Z,1001.71
2023-01-28T08:33:50.900Z,1001.62
2023-01-28T08:34:52.587Z,1001.63
2023-01-28T08:35:54.318Z,1001.67
2023-01-28T08:36:56.055Z,1001.69
2023-01-28T08:37:57.792Z,1001.66
2023-01-28T08:38:59.526Z,1001.65
2023-01-28T08:40:01.285Z,1001.7
2023-01-28T08:41:03.121Z,1001.67
2023-01-28T08:42:04.745Z,1001.66
2023-01-28T08:43:06.456Z,1001.67
2023-01-28T08:44:08.210Z,1001.71
2023-01-28T08:45:09.932Z,1001.7
2023-01-28T08:46:11.728Z,1001.75
2023-01-28T08:47:13.390Z,1001.78
2023-01-28T08:48:15.176Z,1001.75
2023-01-28T08:49:16.862Z,1001.73
2023-01-28T08:50:18.604Z,1001.73
2023-01-28T08:51:20.342Z,1001.71
2023-01-28T08:52:22.056Z,1001.74
2023-01-28T08:53:23.788Z,1001.72
2023-01-28T08:54:25.528Z,1001.76
2023-01-28T08:55:27.325Z,1001.76
2023-01-28T08:56:29.008Z,1001.76
2023-01-28T08:57:30.736Z,1001.76
2023-01-28T08:58:32.463Z,1001.82
2023-01-28T08:59:34.228Z,1001.79
2023-01-28T09:00:36.001Z,1001.89
2023-01-28T09:01:37.753Z,1001.87
2023-01-28T09:02:39.419Z,1001.88
2023-01-28T09:03:41.408Z,1001.89
2023-01-28T09:04:42.860Z,1001.93
2023-01-28T09:05:44.604Z,1001.9
2023-01-28T09:06:46.323Z,1001.94
2023-01-28T09:07:48.056Z,1001.93
2023-01-28T09:08:49.795Z,1001.93
2023-01-28T09:09:51.532Z,1001.92
2023-01-28T09:10:53.257Z,1001.94
2023-01-28T09:11:54.999Z,1001.99
2023-01-28T09:12:56.735Z,1001.96
2023-01-28T09:13:58.466Z,1002.01
2023-01-28T09:15:00.248Z,1002
2023-01-28T09:16:02.084Z,1001.98
2023-01-28T09:17:03.655Z,1001.98
2023-01-28T09:18:05.446Z,1002.02
2023-01-28T09:19:06.393Z,1001.96
2023-01-28T09:20:08.851Z,1002
2023-01-28T09:21:10.593Z,1002
2023-01-28T09:22:12.320Z,1002.04
2023-01-28T09:23:14.104Z,1002.03
2023-01-28T09:24:15.895Z,1002.06
2023-01-28T09:25:17.572Z,1002.08
2023-01-28T09:26:19.258Z,1002.05
2023-01-28T09:27:21.004Z,1002.06
2023-01-28T09:28:23.005Z,1002.08
2023-01-28T09:29:24.454Z,1002.11
2023-01-28T09:30:26.277Z,1002.04
2023-01-28T09:31:28.073Z,1002.04
2023-01-28T09:32:29.657Z,1002.05
2023-01-28T09:33:31.391Z,1002.04
2023-01-28T09:34:33.126Z,1002.1
2023-01-28T09:35:34.859Z,1002.03
2023-01-28T09:36:36.576Z,1002.03
2023-01-28T09:37:38.324Z,1002.02
2023-01-28T09:38:40.066Z,1002.02
2023-01-28T09:39:41.775Z,1002.06
2023-01-28T09:40:43.516Z,1002.02
2023-01-28T09:41:45.245Z,1002.02
2023-01-28T09:42:47.001Z,1002.04
2023-01-28T09:43:48.722Z,1002.03
2023-01-28T09:44:50.469Z,1002.04
2023-01-28T09:45:52.208Z,1002.05
2023-01-28T09:46:54.114Z,1002.04
2023-01-28T09:47:55.652Z,1002.03
2023-01-28T09:48:57.387Z,1002.04
2023-01-28T09:49:59.156Z,1002.06
2023-01-28T09:51:00.878Z,1002.01
2023-01-28T09:52:02.960Z,1002.05
2023-01-28T09:53:06.945Z,1002.07
2023-01-28T09:54:11.269Z,1002.1
2023-01-28T09:55:12.961Z,1002.11
2023-01-28T09:56:14.699Z,1002.13
2023-01-28T09:57:16.425Z,1002.18
2023-01-28T09:58:18.200Z,1002.14
2023-01-28T09:59:19.903Z,1002.12
2023-01-28T10:00:21.890Z,1002.13
2023-01-28T10:01:23.517Z,1002.16
2023-01-28T10:02:25.279Z,1002.14
2023-01-28T10:03:26.932Z,1002.16
2023-01-28T10:04:28.586Z,1002.17
2023-01-28T10:05:30.313Z,1002.16
2023-01-28T10:06:33.250Z,1002.17
2023-01-28T10:07:33.778Z,1002.21
2023-01-28T10:08:35.519Z,1002.16
2023-01-28T10:09:37.260Z,1002.16
2023-01-28T10:10:38.984Z,1002.17
2023-01-28T10:11:40.707Z,1002.14
2023-01-28T10:12:42.446Z,1002.14
2023-01-28T10:13:44.199Z,1002.11
2023-01-28T10:14:45.909Z,1002.13
2023-01-28T10:15:47.651Z,1002.09
2023-01-28T10:16:49.370Z,1002.09
2023-01-28T10:17:51.108Z,1002.12
2023-01-28T10:18:52.850Z,1002.14
2023-01-28T10:19:54.584Z,1002.13
2023-01-28T10:20:56.345Z,1002.12
2023-01-28T10:21:58.006Z,1002.14
2023-01-28T10:22:59.718Z,1002.16
2023-01-28T10:24:01.565Z,1002.18
2023-01-28T10:25:03.190Z,1002.18
2023-01-28T10:26:04.940Z,1002.19
2023-01-28T10:27:06.661Z,1002.2
2023-01-28T10:28:08.390Z,1002.27
2023-01-28T10:29:10.140Z,1002.23
2023-01-28T10:30:11.904Z,1002.17
2023-01-28T10:31:13.770Z,1002.21
2023-01-28T10:32:15.368Z,1002.25
2023-01-28T10:33:17.065Z,1002.36
2023-01-28T10:34:20.110Z,1002.21
2023-01-28T10:35:20.558Z,1002.31
2023-01-28T10:36:22.484Z,1002.3
2023-01-28T10:37:23.990Z,1002.3
2023-01-28T10:38:25.811Z,1002.3
2023-01-28T10:39:27.459Z,1002.27
2023-01-28T10:40:29.180Z,1002.3
2023-01-28T10:41:30.931Z,1002.36
2023-01-28T10:42:32.661Z,1002.34
2023-01-28T10:43:34.394Z,1002.36
2023-01-28T10:44:36.141Z,1002.3
2023-01-28T10:45:37.942Z,1002.26
2023-01-28T10:46:39.601Z,1002.24
2023-01-28T10:47:41.449Z,1002.3
2023-01-28T10:48:43.061Z,1002.3
2023-01-28T10:49:44.789Z,1002.31
2023-01-28T10:50:46.527Z,1002.36
2023-01-28T10:51:48.263Z,1002.28
2023-01-28T10:52:49.985Z,1002.26
2023-01-28T10:53:51.735Z,1002.3
2023-01-28T10:54:53.468Z,1002.29
2023-01-28T10:55:55.238Z,1002.33
2023-01-28T10:56:56.963Z,1002.32
2023-01-28T10:57:58.652Z,1002.33
2023-01-28T10:59:00.402Z,1002.38
2023-01-28T11:00:02.252Z,1002.36
2023-01-28T11:01:03.872Z,1002.41
2023-01-28T11:02:05.659Z,1002.44
2023-01-28T11:03:07.324Z,1002.37
2023-01-28T11:04:09.095Z,1002.35
2023-01-28T11:05:10.832Z,1002.36
2023-01-28T11:06:12.566Z,1002.33
2023-01-28T11:07:14.377Z,1002.41
2023-01-28T11:08:16.044Z,1002.34
2023-01-28T11:09:17.773Z,1002.36
2023-01-28T11:10:19.555Z,1002.36
2023-01-28T11:11:21.427Z,1002.37
2023-01-28T11:12:22.993Z,1002.36
2023-01-28T11:13:24.749Z,1002.34
2023-01-28T11:14:26.438Z,1002.32
2023-01-28T11:15:28.191Z,1002.33
2023-01-28T11:16:29.906Z,1002.32
2023-01-28T11:17:31.701Z,1002.34
2023-01-28T11:18:33.411Z,1002.34
2023-01-28T11:19:35.145Z,1002.27
2023-01-28T11:20:36.885Z,1002.32
2023-01-28T11:21:38.570Z,1002.28
2023-01-28T11:22:40.348Z,1002.27
2023-01-28T11:23:42.186Z,1002.28
2023-01-28T11:24:43.773Z,1002.35
2023-01-28T11:25:45.572Z,1002.29
2023-01-28T11:26:47.251Z,1002.36
2023-01-28T11:27:48.972Z,1002.36
2023-01-28T11:28:50.774Z,1002.33
2023-01-28T11:29:52.436Z,1002.34
2023-01-28T11:30:54.214Z,1002.43
2023-01-28T11:31:55.973Z,1002.4
2023-01-28T11:32:57.648Z,1002.37
2023-01-28T11:33:59.396Z,1002.35
2023-01-28T11:35:01.320Z,1002.38
2023-01-28T11:36:02.889Z,1002.37
2023-01-28T11:37:04.591Z,1002.37
2023-01-28T11:38:06.336Z,1002.37
2023-01-28T11:39:08.076Z,1002.35
2023-01-28T11:40:09.786Z,1002.4
2023-01-28T11:41:11.504Z,1002.37
2023-01-28T11:42:13.263Z,1002.37
2023-01-28T11:43:15.014Z,1002.37
2023-01-28T11:44:16.760Z,1002.32
2023-01-28T11:45:18.456Z,1002.33
2023-01-28T11:46:20.289Z,1002.29
2023-01-28T11:47:22.284Z,1002.33
2023-01-28T11:48:23.779Z,1002.29
2023-01-28T11:49:25.417Z,1002.25
2023-01-28T11:50:27.159Z,1002.32
2023-01-28T11:51:28.842Z,1002.27
2023-01-28T11:52:48.620Z,1002.25
2023-01-28T11:53:32.316Z,1002.24
2023-01-28T11:54:34.061Z,1002.21
2023-01-28T11:55:35.813Z,1002.21
2023-01-28T11:56:37.543Z,1002.19
2023-01-28T11:57:39.254Z,1002.14
2023-01-28T11:58:41.008Z,1002.2
2023-01-28T11:59:42.835Z,1002.1
2023-01-28T12:00:44.446Z,1002.18
2023-01-28T12:01:46.220Z,1002.17
2023-01-28T12:02:47.967Z,1002.16
2023-01-28T12:03:49.657Z,1002.14
2023-01-28T12:04:51.456Z,1002.17
2023-01-28T12:05:53.129Z,1002.14
2023-01-28T12:06:54.882Z,1002.16
2023-01-28T12:07:56.577Z,1002.18
2023-01-28T12:08:58.352Z,1002.1
2023-01-28T12:10:00.174Z,1002.14
2023-01-28T12:11:03.168Z,1002.21
2023-01-28T12:12:04.862Z,1002.18
2023-01-28T12:13:05.277Z,1002.17
2023-01-28T12:14:06.979Z,1002.2
2023-01-28T12:15:08.705Z,1002.16
2023-01-28T12:16:10.646Z,1001.94
2023-01-28T12:17:12.192Z,1002.16
2023-01-28T12:18:13.944Z,1002.11
2023-01-28T12:19:15.732Z,1002.09
2023-01-28T12:20:17.745Z,1002.18
2023-01-28T12:21:19.107Z,1002.16
2023-01-28T12:22:20.845Z,1002.2
2023-01-28T12:23:22.578Z,1002.13
2023-01-28T12:24:24.415Z,1002.18
2023-01-28T12:25:26.047Z,1002.16
2023-01-28T12:26:27.825Z,1002.22
2023-01-28T12:27:29.558Z,1002.22
2023-01-28T12:28:31.245Z,1002.17
2023-01-28T12:29:32.984Z,1002.21
2023-01-28T12:30:34.736Z,1002.23
2023-01-28T12:31:36.585Z,1002.23
2023-01-28T12:32:38.202Z,1002.21
2023-01-28T12:33:39.953Z,1002.18
2023-01-28T12:34:41.697Z,1002.22
2023-01-28T12:35:43.391Z,1002.17
2023-01-28T12:36:45.124Z,1002.17